Time;durP1;ratioP1;P1;durP2;ratioP2;P2;SDS_P1;SDS_P2;PMS_P1;PMS_P2;Temp;Humidity;BMP_temperature;BMP_pressure;BME280_temperature;BME280_humidity;BME280_pressure;Samples;Min_cycle;Max_cycle;Signal;HPM_P1;HPM_P2
2022/10/27 00:00:00;;;;;;;42.90;23.67;;;7.10;99.90;;;;;;4411140;28;656063;-69
2022/10/27 00:02:48;;;;;;;39.03;22.10;;;7.10;99.90;;;;;;4439409;28;654688;-69
2022/10/27 00:05:35;;;;;;;41.57;22.53;;;7.10;99.90;;;;;;4416376;28;655389;-69
2022/10/27 00:08:24;;;;;;;42.37;22.20;;;7.10;99.90;;;;;;4432044;28;655960;-69
2022/10/27 00:11:11;;;;;;;44.90;22.17;;;7.10;99.90;;;;;;4406439;28;654432;-69
2022/10/27 00:13:58;;;;;;;43.37;21.77;;;7.10;99.90;;;;;;4436201;28;655536;-70
2022/10/27 00:16:46;;;;;;;43.33;21.07;;;7.10;99.90;;;;;;4409787;28;654429;-69
2022/10/27 00:19:33;;;;;;;41.33;20.37;;;7.00;99.90;;;;;;4434295;28;657122;-70
2022/10/27 00:22:20;;;;;;;40.13;20.08;;;7.00;99.90;;;;;;4410516;28;655872;-69
2022/10/27 00:25:09;;;;;;;42.70;20.50;;;6.90;99.90;;;;;;4431587;28;655484;-70
2022/10/27 00:27:56;;;;;;;40.33;20.27;;;6.90;99.90;;;;;;4411391;28;655508;-69
2022/10/27 00:30:43;;;;;;;37.20;19.27;;;7.00;99.90;;;;;;4429022;28;657141;-70
2022/10/27 00:33:30;;;;;;;37.80;18.83;;;6.90;99.90;;;;;;4406453;28;656173;-69
2022/10/27 00:36:18;;;;;;;33.23;18.53;;;7.00;99.90;;;;;;4424633;28;656844;-69
2022/10/27 00:39:06;;;;;;;37.67;18.23;;;6.90;99.90;;;;;;4409802;28;655605;-70
2022/10/27 00:41:54;;;;;;;43.13;18.83;;;6.90;99.90;;;;;;4428890;28;656530;-70
2022/10/27 00:44:42;;;;;;;45.60;19.63;;;6.90;99.90;;;;;;4407443;28;655416;-69
2022/10/27 00:47:32;;;;;;;34.92;19.75;;;6.90;99.90;;;;;;4428763;28;656183;-70
2022/10/27 00:50:21;;;;;;;38.60;20.40;;;6.90;99.90;;;;;;4403098;28;655958;-69
2022/10/27 00:53:08;;;;;;;44.33;22.03;;;6.90;99.90;;;;;;4404859;28;656477;-70
2022/10/27 00:55:55;;;;;;;46.17;22.63;;;6.90;99.90;;;;;;4404149;28;655944;-69
2022/10/27 00:58:45;;;;;;;40.90;21.83;;;7.00;99.90;;;;;;4421403;28;657228;-70
2022/10/27 01:01:32;;;;;;;42.10;22.60;;;7.00;99.90;;;;;;4403992;28;656896;-70
2022/10/27 01:04:23;;;;;;;37.97;21.03;;;7.00;99.90;;;;;;4426527;28;655755;-69
2022/10/27 01:07:10;;;;;;;42.17;22.20;;;7.00;99.90;;;;;;4387452;28;655317;-69
2022/10/27 01:09:58;;;;;;;35.37;20.10;;;6.90;99.90;;;;;;4432970;28;657366;-70
2022/10/27 01:12:45;;;;;;;162.23;23.77;;;6.90;99.90;;;;;;4405142;28;655240;-69
2022/10/27 01:15:36;;;;;;;47.37;21.33;;;6.90;99.90;;;;;;4410797;28;657462;-70
2022/10/27 01:18:26;;;;;;;45.00;21.43;;;6.90;99.90;;;;;;4400966;28;656315;-70
2022/10/27 01:21:34;;;;;;;40.00;20.93;;;6.90;99.90;;;;;;4400702;28;657713;-69
2022/10/27 01:24:44;;;;;;;44.27;21.13;;;6.90;99.90;;;;;;4384099;28;656070;-69
2022/10/27 01:27:56;;;;;;;52.40;21.23;;;6.90;99.90;;;;;;4408370;28;655150;-70
2022/10/27 01:30:59;;;;;;;45.07;23.73;;;6.80;99.90;;;;;;4403201;28;656774;-70
2022/10/27 01:33:48;;;;;;;46.47;22.53;;;6.90;99.90;;;;;;4378679;28;656405;-69
2022/10/27 01:36:36;;;;;;;143.53;23.03;;;6.90;99.90;;;;;;4388826;28;655400;-70
2022/10/27 01:39:25;;;;;;;60.77;23.30;;;6.90;99.90;;;;;;4414448;28;657244;-70
2022/10/27 01:42:14;;;;;;;71.50;23.20;;;6.90;99.90;;;;;;4389245;28;656597;-70
2022/10/27 01:45:02;;;;;;;95.73;25.00;;;6.90;99.90;;;;;;4400391;28;656435;-70
2022/10/27 01:47:50;;;;;;;75.20;23.53;;;6.90;99.90;;;;;;4407947;28;656874;-69
2022/10/27 01:50:38;;;;;;;54.37;24.60;;;6.90;99.90;;;;;;4390056;28;656882;-70
2022/10/27 01:53:25;;;;;;;48.00;25.37;;;6.90;99.90;;;;;;4403659;28;656912;-70
2022/10/27 01:56:25;;;;;;;48.07;23.40;;;6.90;99.90;;;;;;4420378;28;656459;-70
2022/10/27 01:59:28;;;;;;;51.53;25.07;;;6.90;99.90;;;;;;4379786;28;657710;-70
2022/10/27 02:02:18;;;;;;;107.27;27.27;;;6.90;99.90;;;;;;4402710;28;655205;-70
2022/10/27 02:05:09;;;;;;;126.27;29.50;;;6.90;99.90;;;;;;4396650;28;657177;-70
2022/10/27 02:07:58;;;;;;;107.97;27.00;;;6.80;99.90;;;;;;4402368;28;656679;-70
2022/10/27 02:10:49;;;;;;;649.37;37.63;;;6.80;99.90;;;;;;4407252;28;656480;-70
2022/10/27 02:13:38;;;;;;;155.37;29.10;;;6.80;99.90;;;;;;4408738;28;656563;-70
2022/10/27 02:16:27;;;;;;;167.77;27.50;;;6.80;99.90;;;;;;4423791;28;656663;-70
2022/10/27 02:19:17;;;;;;;363.40;32.17;;;6.70;99.90;;;;;;4427165;28;657141;-70
2022/10/27 02:22:05;;;;;;;527.03;34.53;;;6.70;99.90;;;;;;4396039;28;657074;-70
2022/10/27 02:24:53;;;;;;;157.10;27.23;;;6.70;99.90;;;;;;4395399;28;658377;-70
2022/10/27 02:27:41;;;;;;;192.20;27.60;;;6.70;99.90;;;;;;4420770;28;656451;-70
2022/10/27 02:30:28;;;;;;;179.53;25.10;;;6.70;99.90;;;;;;4430107;28;657428;-70
2022/10/27 02:33:16;;;;;;;51.80;24.57;;;6.70;99.90;;;;;;4403917;28;656855;-70
2022/10/27 02:36:03;;;;;;;92.47;24.47;;;6.70;99.90;;;;;;4425048;28;656262;-70
2022/10/27 02:38:52;;;;;;;179.13;24.65;;;6.60;99.90;;;;;;4409376;28;656076;-70
2022/10/27 02:41:39;;;;;;;102.80;22.83;;;6.60;99.90;;;;;;4403806;28;656387;-70
2022/10/27 02:44:26;;;;;;;176.07;25.07;;;6.50;99.90;;;;;;4388043;28;656564;-70
2022/10/27 02:47:13;;;;;;;207.70;25.90;;;6.50;99.90;;;;;;4411082;28;657716;-70
2022/10/27 02:50:00;;;;;;;145.37;25.40;;;6.60;99.90;;;;;;4386374;28;656565;-70
2022/10/27 02:52:47;;;;;;;49.97;25.60;;;6.50;99.90;;;;;;4409978;28;657610;-70
2022/10/27 02:55:36;;;;;;;44.63;22.80;;;6.60;99.90;;;;;;4405078;28;655634;-69
2022/10/27 02:58:24;;;;;;;45.50;22.10;;;6.60;99.90;;;;;;4415800;28;656149;-70
2022/10/27 03:01:11;;;;;;;49.58;23.02;;;6.60;99.90;;;;;;4382216;28;655383;-69
2022/10/27 03:03:58;;;;;;;80.80;25.10;;;6.50;99.90;;;;;;4408557;28;656407;-71
2022/10/27 03:06:45;;;;;;;51.97;26.20;;;6.50;99.90;;;;;;4407516;28;655348;-70
2022/10/27 03:09:32;;;;;;;54.40;26.20;;;6.50;99.90;;;;;;4427273;28;656689;-70
2022/10/27 03:12:21;;;;;;;52.53;25.40;;;6.50;99.90;;;;;;4422888;28;656384;-70
2022/10/27 03:15:09;;;;;;;45.87;25.47;;;6.50;99.90;;;;;;4404853;28;656806;-70
2022/10/27 03:17:56;;;;;;;71.47;24.53;;;6.40;99.90;;;;;;4407532;28;655731;-70
2022/10/27 03:20:45;;;;;;;50.77;26.33;;;6.50;99.90;;;;;;4407709;28;657245;-70
2022/10/27 03:23:32;;;;;;;59.10;30.07;;;6.40;99.90;;;;;;4389269;28;656439;-70
2022/10/27 03:26:19;;;;;;;50.30;27.27;;;6.50;99.90;;;;;;4417783;28;655090;-70
2022/10/27 03:29:08;;;;;;;48.20;25.97;;;6.50;99.90;;;;;;4403589;28;656596;-71
2022/10/27 03:31:55;;;;;;;53.00;25.65;;;6.50;99.90;;;;;;4409744;28;655621;-70
2022/10/27 03:34:42;;;;;;;46.70;25.90;;;6.50;99.90;;;;;;4429317;28;656432;-70
2022/10/27 03:37:29;;;;;;;47.93;27.17;;;6.60;99.90;;;;;;4426673;28;655599;-70
2022/10/27 03:40:17;;;;;;;49.23;27.67;;;6.60;99.90;;;;;;4406453;28;657361;-70
2022/10/27 03:43:04;;;;;;;48.27;27.77;;;6.50;99.90;;;;;;4426886;28;656317;-70
2022/10/27 03:45:52;;;;;;;53.67;30.20;;;6.50;99.90;;;;;;4407217;28;655889;-70
2022/10/27 03:48:40;;;;;;;53.00;29.40;;;6.60;99.90;;;;;;4416641;28;655145;-69
2022/10/27 03:51:27;;;;;;;62.33;32.05;;;6.60;99.90;;;;;;4429450;28;656241;-71
2022/10/27 03:54:15;;;;;;;55.10;32.07;;;6.60;99.90;;;;;;4421486;28;656097;-70
2022/10/27 03:57:02;;;;;;;46.60;27.90;;;6.60;99.90;;;;;;4431226;28;656126;-70
2022/10/27 03:59:49;;;;;;;56.93;28.37;;;6.60;99.90;;;;;;4424654;28;656244;-71
2022/10/27 04:02:38;;;;;;;46.50;27.70;;;6.70;99.90;;;;;;4410502;28;656195;-70
2022/10/27 04:05:25;;;;;;;42.87;26.37;;;6.70;99.90;;;;;;4410121;28;655690;-70
2022/10/27 04:08:12;;;;;;;48.97;26.93;;;6.70;99.90;;;;;;4433800;28;656648;-70
2022/10/27 04:10:59;;;;;;;49.63;26.73;;;6.70;99.90;;;;;;4428285;28;655187;-71
2022/10/27 04:13:47;;;;;;;49.27;27.30;;;6.70;99.90;;;;;;4404745;28;656311;-70
2022/10/27 04:16:34;;;;;;;43.33;25.93;;;6.80;99.90;;;;;;4423185;28;656348;-70
2022/10/27 04:19:23;;;;;;;47.33;27.77;;;6.80;99.90;;;;;;4405431;28;655529;-70
2022/10/27 04:22:10;;;;;;;49.57;26.70;;;6.80;99.90;;;;;;4415130;28;655641;-70
2022/10/27 04:24:57;;;;;;;40.80;25.63;;;6.90;99.90;;;;;;4429058;28;656520;-70
2022/10/27 04:27:44;;;;;;;40.07;25.00;;;6.90;99.90;;;;;;4415617;28;656044;-70
2022/10/27 04:30:32;;;;;;;45.13;26.20;;;7.00;99.90;;;;;;4406064;28;656440;-71
2022/10/27 04:33:19;;;;;;;48.57;26.50;;;7.00;99.90;;;;;;4418497;28;656510;-70
2022/10/27 04:36:08;;;;;;;39.03;24.97;;;7.00;99.90;;;;;;4400957;28;656249;-70
2022/10/27 04:38:55;;;;;;;42.57;25.40;;;7.10;99.90;;;;;;4402164;28;655537;-70
2022/10/27 04:41:42;;;;;;;45.93;24.93;;;7.10;99.90;;;;;;4422751;28;655504;-71
2022/10/27 04:44:29;;;;;;;43.67;24.50;;;7.20;99.90;;;;;;4416842;28;655687;-70
2022/10/27 04:47:17;;;;;;;37.57;22.07;;;7.20;99.90;;;;;;4404618;28;656678;-71
2022/10/27 04:50:04;;;;;;;38.93;22.93;;;7.20;99.90;;;;;;4426295;28;656497;-70
2022/10/27 04:52:57;;;;;;;42.37;22.67;;;7.30;99.90;;;;;;4410336;28;656233;-70
2022/10/27 04:55:44;;;;;;;37.85;22.73;;;7.30;99.90;;;;;;4401601;28;657461;-70
2022/10/27 04:58:31;;;;;;;43.40;22.07;;;7.40;99.90;;;;;;4413292;28;655717;-70
2022/10/27 05:01:18;;;;;;;44.87;22.07;;;7.40;99.90;;;;;;4428782;28;656856;-70
2022/10/27 05:04:06;;;;;;;44.83;22.00;;;7.40;99.90;;;;;;4410558;28;655277;-70
2022/10/27 05:06:53;;;;;;;45.10;21.90;;;7.50;99.90;;;;;;4433845;28;656074;-70
2022/10/27 05:09:41;;;;;;;37.10;20.43;;;7.50;99.90;;;;;;4401919;28;656324;-70
2022/10/27 05:12:29;;;;;;;37.47;19.30;;;7.50;99.90;;;;;;4415564;28;656071;-69
2022/10/27 05:15:16;;;;;;;31.53;17.93;;;7.60;99.90;;;;;;4408177;28;655667;-70
2022/10/27 05:18:03;;;;;;;35.57;19.93;;;7.70;99.90;;;;;;4421822;28;655892;-70
2022/10/27 05:20:50;;;;;;;42.03;19.73;;;7.70;99.90;;;;;;4408321;28;656052;-70
2022/10/27 05:23:38;;;;;;;33.73;20.37;;;7.70;99.90;;;;;;4425727;28;657179;-70
2022/10/27 05:26:27;;;;;;;40.13;22.13;;;7.70;99.90;;;;;;4418173;28;655477;-69
2022/10/27 05:29:14;;;;;;;41.03;21.20;;;7.80;99.90;;;;;;4427354;28;656183;-70
2022/10/27 05:32:01;;;;;;;39.13;22.50;;;7.70;99.90;;;;;;4408603;28;656213;-70
2022/10/27 05:34:48;;;;;;;41.13;21.77;;;7.80;99.90;;;;;;4426871;28;656771;-70
2022/10/27 05:37:35;;;;;;;39.63;21.67;;;7.90;99.90;;;;;;4401730;28;655603;-70
2022/10/27 05:40:22;;;;;;;38.57;22.00;;;8.00;99.90;;;;;;4409399;28;656222;-70
2022/10/27 05:43:11;;;;;;;39.83;20.83;;;8.00;99.90;;;;;;4407387;28;655640;-70
2022/10/27 05:45:59;;;;;;;36.63;21.37;;;8.10;99.90;;;;;;4402670;28;655630;-70
2022/10/27 05:48:46;;;;;;;34.78;18.98;;;8.20;99.90;;;;;;4388148;28;656053;-71
2022/10/27 05:51:33;;;;;;;40.10;19.70;;;8.20;99.90;;;;;;4403990;28;656188;-70
2022/10/27 05:54:20;;;;;;;30.47;17.93;;;8.20;99.90;;;;;;4391103;28;655372;-70
2022/10/27 05:57:08;;;;;;;41.37;18.93;;;8.30;99.90;;;;;;4407821;28;657439;-71
2022/10/27 05:59:56;;;;;;;33.23;19.40;;;8.40;99.90;;;;;;4413898;28;655537;-70
2022/10/27 06:02:44;;;;;;;49.27;20.23;;;8.40;99.90;;;;;;4426725;28;655954;-70
2022/10/27 06:05:31;;;;;;;34.70;20.07;;;8.40;99.90;;;;;;4405295;28;655365;-70
2022/10/27 06:08:18;;;;;;;40.37;19.90;;;8.40;99.90;;;;;;4416016;28;656312;-70
2022/10/27 06:11:05;;;;;;;32.07;19.47;;;8.50;99.90;;;;;;4391970;28;655783;-69
2022/10/27 06:13:53;;;;;;;41.80;20.63;;;8.50;99.90;;;;;;4410411;28;656766;-70
2022/10/27 06:16:42;;;;;;;36.70;21.87;;;8.50;99.90;;;;;;4396627;28;655666;-70
2022/10/27 06:19:29;;;;;;;46.47;25.47;;;8.50;99.90;;;;;;4408349;28;655847;-71
2022/10/27 06:22:16;;;;;;;47.13;24.93;;;8.90;99.90;;;;;;4403726;28;655396;-70
2022/10/27 06:25:03;;;;;;;41.13;23.63;;;9.00;99.90;;;;;;4430564;28;656245;-70
2022/10/27 06:27:50;;;;;;;46.60;26.17;;;9.20;99.90;;;;;;4395203;28;655938;-70
2022/10/27 06:30:37;;;;;;;52.53;29.40;;;9.40;99.90;;;;;;4427070;28;656860;-70
2022/10/27 06:33:26;;;;;;;59.43;33.27;;;9.60;99.90;;;;;;4421803;28;655185;-71
2022/10/27 06:36:13;;;;;;;61.07;31.70;;;9.70;99.90;;;;;;4401099;28;656211;-70
2022/10/27 06:39:00;;;;;;;64.57;33.30;;;9.90;99.90;;;;;;4406827;28;655452;-70
2022/10/27 06:41:47;;;;;;;70.73;37.33;;;10.10;99.90;;;;;;4416573;28;656659;-70
2022/10/27 06:44:35;;;;;;;64.37;32.90;;;10.20;99.90;;;;;;4408965;28;656354;-70
2022/10/27 06:47:22;;;;;;;58.42;32.08;;;10.30;99.90;;;;;;4423867;28;656643;-70
2022/10/27 06:50:11;;;;;;;54.27;28.23;;;10.40;99.90;;;;;;4426774;28;656422;-71
2022/10/27 06:53:00;;;;;;;52.47;27.67;;;10.40;99.90;;;;;;4399888;28;657741;-70
2022/10/27 06:55:47;;;;;;;54.77;26.87;;;10.50;99.90;;;;;;4382805;28;657877;-70
2022/10/27 06:58:38;;;;;;;55.03;27.17;;;10.60;99.90;;;;;;4406576;28;657726;-70
2022/10/27 07:01:25;;;;;;;53.43;27.13;;;10.50;99.90;;;;;;4373807;28;656646;-70
2022/10/27 07:04:12;;;;;;;47.60;22.00;;;10.60;99.90;;;;;;4424900;28;656808;-70
2022/10/27 07:07:01;;;;;;;44.70;23.07;;;10.60;99.90;;;;;;4429370;28;656699;-71
2022/10/27 07:09:48;;;;;;;35.40;19.83;;;10.80;99.90;;;;;;4385444;28;657321;-70
2022/10/27 07:12:35;;;;;;;43.93;23.43;;;10.80;99.90;;;;;;4402538;28;656510;-69
2022/10/27 07:15:23;;;;;;;45.78;22.92;;;10.90;99.90;;;;;;4428966;28;657745;-70
2022/10/27 07:18:10;;;;;;;40.30;21.77;;;10.90;99.90;;;;;;4419060;28;656481;-70
2022/10/27 07:20:57;;;;;;;43.37;20.97;;;10.90;99.90;;;;;;4420874;28;657581;-71
2022/10/27 07:23:46;;;;;;;39.10;21.67;;;11.00;99.90;;;;;;4423106;28;656453;-70
2022/10/27 07:26:34;;;;;;;38.47;21.37;;;11.10;99.90;;;;;;4424594;28;657232;-70
2022/10/27 07:29:21;;;;;;;41.20;21.97;;;11.20;99.90;;;;;;4406628;28;657145;-70
2022/10/27 07:32:08;;;;;;;44.23;23.23;;;11.20;99.90;;;;;;4428098;28;657065;-71
2022/10/27 07:34:55;;;;;;;44.97;23.60;;;11.30;99.90;;;;;;4405144;28;656544;-70
2022/10/27 07:37:43;;;;;;;39.17;22.37;;;11.40;99.90;;;;;;4427693;28;656509;-71
2022/10/27 07:40:32;;;;;;;42.87;23.23;;;11.40;99.90;;;;;;4404048;28;656233;-70
2022/10/27 07:43:19;;;;;;;37.83;20.03;;;11.60;99.90;;;;;;4424395;28;657188;-70
2022/10/27 07:46:06;;;;;;;39.30;20.60;;;11.70;99.90;;;;;;4399121;28;656442;-70
2022/10/27 07:48:54;;;;;;;32.20;17.80;;;11.90;99.90;;;;;;4427271;28;655977;-70
2022/10/27 07:51:41;;;;;;;41.57;20.13;;;12.00;99.90;;;;;;4407423;28;656688;-69
2022/10/27 07:54:28;;;;;;;38.03;21.17;;;12.10;99.90;;;;;;4426555;28;656708;-70
2022/10/27 07:57:17;;;;;;;43.00;22.43;;;12.30;99.90;;;;;;4403975;28;656380;-70
2022/10/27 08:00:05;;;;;;;31.33;15.13;;;12.40;99.90;;;;;;4406729;28;656673;-70
2022/10/27 08:02:52;;;;;;;35.87;20.00;;;12.40;99.90;;;;;;4398265;28;658093;-71
2022/10/27 08:05:39;;;;;;;39.30;21.93;;;12.30;99.90;;;;;;4408415;28;656903;-70
2022/10/27 08:08:26;;;;;;;40.90;22.80;;;12.40;99.90;;;;;;4389692;28;656851;-70
2022/10/27 08:11:13;;;;;;;35.13;19.23;;;12.60;99.90;;;;;;4407158;28;657439;-70
2022/10/27 08:14:02;;;;;;;32.17;17.77;;;12.80;99.90;;;;;;4405776;28;656415;-69
2022/10/27 08:16:49;;;;;;;31.63;17.77;;;13.00;99.90;;;;;;4424442;28;657378;-69
2022/10/27 08:19:36;;;;;;;28.10;17.60;;;13.10;99.90;;;;;;4404698;28;656886;-70
2022/10/27 08:22:23;;;;;;;30.90;16.90;;;13.00;99.90;;;;;;4426629;28;657285;-71
2022/10/27 08:25:11;;;;;;;32.17;16.90;;;13.00;99.90;;;;;;4401475;28;656615;-70
2022/10/27 08:27:58;;;;;;;32.70;18.03;;;13.00;99.90;;;;;;4428905;28;657719;-70
2022/10/27 08:30:47;;;;;;;28.60;18.03;;;13.20;99.90;;;;;;4388840;28;656898;-71
2022/10/27 08:33:34;;;;;;;25.23;14.93;;;13.30;99.90;;;;;;4404958;28;656612;-69
2022/10/27 08:36:21;;;;;;;22.23;14.17;;;13.50;99.90;;;;;;4385139;28;656801;-70
2022/10/27 08:39:09;;;;;;;25.53;14.57;;;13.80;99.90;;;;;;4402373;28;657481;-70
2022/10/27 08:41:57;;;;;;;24.60;15.03;;;13.90;99.90;;;;;;4386596;28;657339;-69
2022/10/27 08:44:46;;;;;;;31.40;14.93;;;14.20;99.90;;;;;;4406995;28;655920;-69
2022/10/27 08:47:35;;;;;;;30.47;17.50;;;14.30;99.90;;;;;;4388227;28;658013;-69
2022/10/27 08:50:23;;;;;;;27.20;15.40;;;13.80;99.90;;;;;;4388918;28;657981;-70
2022/10/27 08:53:12;;;;;;;35.00;19.30;;;14.30;99.90;;;;;;4390547;28;656418;-69
2022/10/27 08:56:00;;;;;;;35.83;20.67;;;14.10;99.90;;;;;;4423138;28;656830;-70
2022/10/27 08:58:48;;;;;;;31.87;17.80;;;14.30;99.90;;;;;;4398984;28;657038;-70
2022/10/27 09:01:38;;;;;;;34.40;17.40;;;14.90;99.90;;;;;;4409486;28;657025;-70
2022/10/27 09:04:44;;;;;;;30.43;18.07;;;14.60;99.90;;;;;;4408528;28;656412;-69
2022/10/27 09:07:35;;;;;;;25.23;15.03;;;15.40;99.90;;;;;;4405545;28;656516;-69
2022/10/27 09:10:32;;;;;;;33.63;13.77;;;15.90;99.90;;;;;;4403757;28;656986;-69
2022/10/27 09:13:24;;;;;;;19.07;11.67;;;15.80;99.90;;;;;;4400868;28;657029;-69
2022/10/27 09:16:14;;;;;;;24.37;14.73;;;15.40;99.90;;;;;;4384417;28;656996;-70
2022/10/27 09:19:01;;;;;;;22.93;13.50;;;15.30;99.90;;;;;;4407907;28;656521;-69
2022/10/27 09:21:50;;;;;;;29.40;14.02;;;15.10;99.90;;;;;;4426108;28;657744;-69
2022/10/27 09:24:37;;;;;;;24.07;13.20;;;15.20;99.90;;;;;;4402007;28;657461;-69
2022/10/27 09:27:24;;;;;;;19.50;11.03;;;16.00;99.90;;;;;;4425369;28;656458;-69
2022/10/27 09:30:12;;;;;;;26.53;13.20;;;17.00;99.90;;;;;;4408044;28;656192;-69
2022/10/27 09:33:00;;;;;;;23.98;12.50;;;17.00;99.90;;;;;;4428728;28;656631;-69
2022/10/27 09:35:47;;;;;;;22.47;12.90;;;17.10;99.90;;;;;;4401249;28;658221;-69
2022/10/27 09:38:36;;;;;;;25.37;10.77;;;16.70;99.90;;;;;;4425907;28;656832;-68
2022/10/27 09:41:23;;;;;;;22.20;10.07;;;16.50;99.90;;;;;;4398006;28;658190;-68
2022/10/27 09:44:17;;;;;;;20.23;11.43;;;16.30;99.90;;;;;;4405793;28;656798;-69
2022/10/27 09:47:04;;;;;;;19.43;11.13;;;15.90;99.90;;;;;;4400964;28;656656;-68
2022/10/27 09:49:52;;;;;;;18.73;10.13;;;15.90;99.90;;;;;;4399957;28;657425;-68
2022/10/27 09:52:41;;;;;;;16.27;7.67;;;16.40;99.90;;;;;;4428843;28;656798;-68
2022/10/27 09:55:46;;;;;;;14.53;8.43;;;17.00;99.90;;;;;;4406395;28;656460;-68
2022/10/27 09:58:50;;;;;;;18.03;8.57;;;17.20;99.90;;;;;;4410196;28;655978;-68
2022/10/27 10:01:56;;;;;;;21.43;7.90;;;17.10;99.90;;;;;;4372109;28;656795;-68
2022/10/27 10:04:44;;;;;;;16.50;7.07;;;16.90;99.90;;;;;;4400551;28;655594;-68
2022/10/27 10:07:34;;;;;;;11.37;6.47;;;17.00;99.90;;;;;;4408910;28;655637;-69
2022/10/27 10:10:24;;;;;;;14.70;6.87;;;16.90;99.90;;;;;;4404013;28;656075;-69
2022/10/27 10:13:14;;;;;;;16.70;6.97;;;16.00;99.90;;;;;;4407348;28;655018;-69
2022/10/27 10:16:06;;;;;;;16.00;8.37;;;16.30;99.90;;;;;;4399031;28;655323;-69
2022/10/27 10:19:02;;;;;;;15.90;7.40;;;17.00;99.90;;;;;;4403301;28;656196;-69
2022/10/27 10:21:50;;;;;;;19.60;8.03;;;18.00;99.90;;;;;;4400017;28;655666;-69
2022/10/27 10:24:37;;;;;;;14.73;7.57;;;18.00;99.90;;;;;;4400863;28;656288;-69
2022/10/27 10:27:26;;;;;;;12.53;7.30;;;18.70;99.90;;;;;;4418405;28;655684;-69
2022/10/27 10:30:19;;;;;;;17.07;7.53;;;19.60;99.90;;;;;;4404020;28;656712;-69
2022/10/27 10:33:06;;;;;;;16.20;7.90;;;20.20;99.90;;;;;;4386577;28;655552;-69
2022/10/27 10:35:54;;;;;;;19.73;8.10;;;19.90;99.90;;;;;;4428799;28;655930;-69
2022/10/27 10:38:41;;;;;;;14.13;6.97;;;20.90;99.90;;;;;;4404332;28;656135;-69
2022/10/27 10:41:28;;;;;;;14.33;5.53;;;21.20;95.50;;;;;;4423571;28;656616;-69
2022/10/27 10:44:16;;;;;;;10.47;5.23;;;19.90;93.80;;;;;;4407558;28;655590;-68
2022/10/27 10:47:05;;;;;;;11.80;5.20;;;20.10;93.30;;;;;;4420768;28;656016;-69
2022/10/27 10:49:54;;;;;;;12.93;4.90;;;19.80;95.20;;;;;;4402460;28;656658;-68
2022/10/27 10:52:44;;;;;;;16.23;7.87;;;19.60;95.00;;;;;;4404979;28;655501;-69
2022/10/27 10:55:34;;;;;;;15.27;6.13;;;20.70;94.80;;;;;;4404262;28;655093;-69
2022/10/27 10:58:22;;;;;;;16.17;5.83;;;20.40;94.20;;;;;;4406153;28;655638;-69
2022/10/27 11:01:09;;;;;;;11.07;5.63;;;21.70;92.50;;;;;;4429820;28;655935;-69
2022/10/27 11:03:58;;;;;;;10.47;5.10;;;22.50;88.70;;;;;;4405368;28;655339;-69
2022/10/27 11:07:03;;;;;;;8.03;4.40;;;21.80;85.10;;;;;;4410814;28;655880;-68
2022/10/27 11:09:53;;;;;;;19.33;5.00;;;21.70;77.90;;;;;;4383753;28;654470;-68
2022/10/27 11:12:43;;;;;;;20.00;6.10;;;21.00;80.60;;;;;;4407941;28;655769;-69
2022/10/27 11:15:31;;;;;;;12.43;6.17;;;21.00;85.20;;;;;;4414380;28;656007;-69
2022/10/27 11:18:20;;;;;;;12.03;5.70;;;19.60;86.90;;;;;;4424098;28;656666;-69
2022/10/27 11:21:12;;;;;;;13.80;6.10;;;20.50;89.60;;;;;;4399985;28;656327;-68
2022/10/27 11:24:00;;;;;;;15.30;5.87;;;20.30;90.00;;;;;;4396102;28;655616;-69
2022/10/27 11:26:53;;;;;;;10.00;5.60;;;20.70;89.50;;;;;;4411161;28;656240;-69
2022/10/27 11:29:43;;;;;;;11.87;5.50;;;20.40;88.40;;;;;;4383050;28;655057;-69
2022/10/27 11:32:32;;;;;;;12.83;6.33;;;20.70;90.10;;;;;;4419220;28;655860;-69
2022/10/27 11:35:23;;;;;;;10.93;5.77;;;21.90;87.50;;;;;;4436228;28;656123;-69
2022/10/27 11:38:15;;;;;;;12.60;6.00;;;22.50;79.80;;;;;;4390466;28;655738;-69
2022/10/27 11:41:04;;;;;;;11.50;5.93;;;22.70;79.10;;;;;;4402879;28;656560;-69
2022/10/27 11:43:54;;;;;;;11.50;5.00;;;23.10;75.90;;;;;;4403940;28;656559;-69
2022/10/27 11:46:43;;;;;;;10.40;5.30;;;23.00;73.90;;;;;;4401732;28;655395;-69
2022/10/27 11:49:34;;;;;;;14.30;5.93;;;21.60;77.70;;;;;;4406450;28;655939;-69
2022/10/27 11:52:23;;;;;;;12.53;5.47;;;21.50;78.70;;;;;;4405334;28;656599;-69
2022/10/27 11:55:14;;;;;;;17.58;5.90;;;22.90;80.40;;;;;;4407799;28;655394;-67
2022/10/27 11:58:03;;;;;;;9.93;5.68;;;23.50;72.30;;;;;;4407810;28;655607;-69
2022/10/27 12:00:54;;;;;;;12.93;5.75;;;22.00;75.50;;;;;;4409004;28;654882;-69
2022/10/27 12:03:57;;;;;;;10.25;5.00;;;22.50;78.90;;;;;;4394743;28;655722;-69
2022/10/27 12:06:46;;;;;;;8.65;4.43;;;24.30;72.60;;;;;;4381180;28;655927;-69
2022/10/27 12:09:38;;;;;;;10.63;4.28;;;24.90;70.80;;;;;;4386855;28;656122;-68
2022/10/27 12:12:30;;;;;;;10.27;4.55;;;25.30;65.80;;;;;;4388840;28;655319;-68
2022/10/27 12:15:20;;;;;;;12.82;4.45;;;24.30;63.80;;;;;;4383408;28;656447;-68
2022/10/27 12:18:11;;;;;;;7.63;4.20;;;24.90;65.70;;;;;;4387123;28;656820;-68
2022/10/27 12:21:00;;;;;;;8.32;4.15;;;25.10;62.00;;;;;;4393419;28;655387;-69
2022/10/27 12:23:49;;;;;;;11.15;4.10;;;24.00;61.10;;;;;;4390469;28;655505;-68
2022/10/27 12:26:37;;;;;;;9.77;4.40;;;24.60;64.60;;;;;;4392877;28;656214;-68
2022/10/27 12:29:36;;;;;;;7.70;3.43;;;24.10;63.70;;;;;;4418016;28;654542;-68
2022/10/27 12:32:24;;;;;;;8.60;3.80;;;23.50;65.20;;;;;;4399235;28;654822;-68
2022/10/27 12:35:14;;;;;;;19.83;4.37;;;23.70;65.80;;;;;;4398601;28;654594;-68
2022/10/27 12:38:05;;;;;;;9.57;3.90;;;24.00;65.80;;;;;;4393873;28;655559;-68
2022/10/27 12:40:55;;;;;;;8.30;3.67;;;24.00;63.90;;;;;;4382330;28;655698;-68
2022/10/27 12:43:45;;;;;;;12.37;4.17;;;23.40;67.60;;;;;;4380098;28;655989;-68
2022/10/27 12:46:43;;;;;;;9.17;4.17;;;23.70;65.00;;;;;;4387239;28;656540;-68
2022/10/27 12:49:33;;;;;;;9.32;3.78;;;25.20;63.00;;;;;;4377458;28;654727;-69
2022/10/27 12:52:22;;;;;;;7.17;3.87;;;24.80;60.50;;;;;;4379786;28;654417;-68
2022/10/27 12:55:16;;;;;;;15.85;4.07;;;24.20;65.00;;;;;;4397978;28;654510;-68
2022/10/27 12:58:05;;;;;;;9.35;3.72;;;24.50;61.00;;;;;;4377357;28;655764;-69
2022/10/27 13:00:55;;;;;;;8.07;3.80;;;24.70;61.80;;;;;;4375816;28;655248;-69
2022/10/27 13:03:58;;;;;;;9.38;4.55;;;25.70;60.70;;;;;;4372512;28;655531;-69
2022/10/27 13:07:07;;;;;;;8.57;3.65;;;26.00;57.50;;;;;;4371526;28;654451;-68
2022/10/27 13:10:14;;;;;;;10.00;4.47;;;25.00;60.10;;;;;;4385033;28;655713;-69
2022/10/27 13:13:12;;;;;;;12.07;4.15;;;23.90;62.40;;;;;;4366835;28;656892;-69
2022/10/27 13:16:03;;;;;;;9.20;4.22;;;25.80;63.50;;;;;;4393143;28;655928;-68
2022/10/27 13:18:59;;;;;;;9.07;4.32;;;27.20;57.60;;;;;;4379855;28;654057;-68
2022/10/27 13:21:47;;;;;;;12.68;4.30;;;27.50;55.90;;;;;;4387782;28;654268;-68
2022/10/27 13:24:39;;;;;;;7.85;4.03;;;28.20;56.10;;;;;;4411211;28;655368;-68
2022/10/27 13:27:28;;;;;;;10.93;3.97;;;28.80;53.60;;;;;;4392402;28;654763;-68
2022/10/27 13:30:17;;;;;;;12.00;4.82;;;29.10;53.30;;;;;;4391368;28;655865;-68
2022/10/27 13:33:07;;;;;;;9.95;4.72;;;27.50;54.50;;;;;;4406284;28;655627;-68
2022/10/27 13:36:18;;;;;;;12.65;4.50;;;27.40;57.00;;;;;;4389519;28;656024;-69
2022/10/27 13:39:39;;;;;;;12.70;4.53;;;28.00;54.10;;;;;;4374031;28;655396;-69
2022/10/27 13:42:26;;;;;;;13.68;4.28;;;27.70;53.00;;;;;;4396023;28;655211;-69
2022/10/27 13:45:43;;;;;;;7.65;3.83;;;28.00;54.20;;;;;;4425726;28;656476;-69
2022/10/27 13:48:34;;;;;;;15.88;4.68;;;26.70;53.70;;;;;;4367872;28;654385;-68
2022/10/27 13:51:42;;;;;;;11.10;4.45;;;23.50;59.30;;;;;;4396512;28;655324;-69
2022/10/27 13:55:03;;;;;;;10.48;4.72;;;23.20;63.70;;;;;;4397389;28;655447;-69
2022/10/27 13:58:22;;;;;;;11.55;4.55;;;21.50;68.70;;;;;;4371824;28;655250;-68
2022/10/27 14:01:21;;;;;;;15.27;5.07;;;20.40;75.00;;;;;;4364854;28;655477;-68
2022/10/27 14:04:30;;;;;;;15.37;4.70;;;20.50;78.70;;;;;;4399608;28;655869;-69
2022/10/27 14:07:19;;;;;;;13.70;5.37;;;20.80;80.50;;;;;;4392056;28;655395;-69
2022/10/27 14:10:12;;;;;;;11.17;4.33;;;20.20;85.00;;;;;;4400523;28;655536;-69
2022/10/27 14:12:59;;;;;;;14.50;4.77;;;20.70;88.30;;;;;;4389059;28;656047;-68
2022/10/27 14:15:46;;;;;;;12.83;5.20;;;20.90;87.10;;;;;;4383086;28;656320;-68
2022/10/27 14:18:34;;;;;;;12.70;5.30;;;20.80;87.00;;;;;;4401568;28;656936;-68